Time;durP1;ratioP1;P1;durP2;ratioP2;P2;SDS_P1;SDS_P2;PMS_P1;PMS_P2;Temp;Humidity;BMP_temperature;BMP_pressure;BME280_temperature;BME280_humidity;BME280_pressure;Samples;Min_cycle;Max_cycle;Signal;HPM_P1;HPM_P2
2023/01/22 00:02:15;;;;;;;8.48;4.82;;;1.40;90.80;;;;;;5037960;28;20120;-77
2023/01/22 00:04:40;;;;;;;9.10;5.00;;;1.40;90.80;;;;;;5039125;28;20025;-76
2023/01/22 00:07:06;;;;;;;7.32;4.60;;;1.40;90.60;;;;;;5038972;28;20739;-77
2023/01/22 00:09:32;;;;;;;6.75;3.90;;;1.40;90.80;;;;;;5031693;28;20042;-78
2023/01/22 00:11:57;;;;;;;6.82;4.15;;;1.40;90.80;;;;;;5032811;28;20029;-75
2023/01/22 00:14:23;;;;;;;5.10;3.70;;;1.40;90.80;;;;;;5033074;28;20066;-76
2023/01/22 00:16:48;;;;;;;6.70;3.88;;;1.40;90.80;;;;;;5036723;28;20082;-76
2023/01/22 00:19:14;;;;;;;6.78;4.10;;;1.40;90.80;;;;;;5035772;28;20025;-78
2023/01/22 00:21:39;;;;;;;4.68;3.58;;;1.40;90.80;;;;;;5019916;28;20045;-76
2023/01/22 00:24:05;;;;;;;6.70;4.05;;;1.40;90.80;;;;;;5037228;28;20110;-77
2023/01/22 00:26:31;;;;;;;6.45;3.83;;;1.40;90.80;;;;;;5024500;28;20625;-76
2023/01/22 00:28:56;;;;;;;7.38;4.60;;;1.40;90.80;;;;;;5035215;28;20052;-78
2023/01/22 00:31:22;;;;;;;6.10;3.88;;;1.40;90.80;;;;;;5035199;28;20036;-76
2023/01/22 00:33:48;;;;;;;6.03;3.83;;;1.40;90.90;;;;;;5036837;28;20040;-77
2023/01/22 00:36:15;;;;;;;5.40;3.80;;;1.40;90.90;;;;;;5035679;28;20071;-77
2023/01/22 00:38:40;;;;;;;5.55;3.58;;;1.40;90.90;;;;;;5038978;28;20573;-76
2023/01/22 00:41:06;;;;;;;5.22;3.60;;;1.40;90.90;;;;;;5036401;28;20048;-77
2023/01/22 00:43:33;;;;;;;4.68;3.50;;;1.40;90.90;;;;;;5034606;28;20034;-79
2023/01/22 00:45:59;;;;;;;4.65;3.00;;;1.40;90.90;;;;;;5032833;28;20443;-77
2023/01/22 00:48:24;;;;;;;5.97;3.97;;;1.40;90.90;;;;;;5036080;28;20694;-76
2023/01/22 00:50:50;;;;;;;4.68;2.92;;;1.40;90.90;;;;;;5035666;28;20042;-73
2023/01/22 00:53:15;;;;;;;4.53;3.40;;;1.50;90.90;;;;;;5032590;28;20835;-75
2023/01/22 00:55:51;;;;;;;6.03;3.33;;;1.40;90.90;;;;;;5032328;28;20955;-76
2023/01/22 00:58:17;;;;;;;4.32;2.97;;;1.40;90.90;;;;;;5029883;28;20504;-77
2023/01/22 01:00:43;;;;;;;3.83;2.95;;;1.40;90.90;;;;;;5034474;28;20057;-79
2023/01/22 01:03:26;;;;;;;5.40;3.80;;;1.50;90.90;;;;;;5039429;28;20093;-75
2023/01/22 01:05:53;;;;;;;3.25;2.75;;;1.40;90.90;;;;;;5028442;28;20123;-75
2023/01/22 01:08:18;;;;;;;4.10;3.08;;;1.40;90.90;;;;;;5034614;28;20037;-75
2023/01/22 01:10:44;;;;;;;4.80;3.30;;;1.50;90.90;;;;;;5034563;28;20067;-78
2023/01/22 01:13:10;;;;;;;3.70;2.72;;;1.50;90.90;;;;;;5035209;28;20036;-76
2023/01/22 01:15:36;;;;;;;4.35;3.00;;;1.50;90.90;;;;;;5029219;28;20272;-76
2023/01/22 01:18:02;;;;;;;3.88;2.75;;;1.50;90.90;;;;;;5038758;28;20738;-75
2023/01/22 01:20:28;;;;;;;5.05;3.05;;;1.50;90.90;;;;;;5031535;28;20503;-77
2023/01/22 01:22:53;;;;;;;4.50;2.97;;;1.50;90.90;;;;;;5036385;28;20044;-75
2023/01/22 01:25:19;;;;;;;4.45;3.10;;;1.40;90.90;;;;;;5032067;28;20076;-76
2023/01/22 01:27:44;;;;;;;5.40;2.72;;;1.40;91.00;;;;;;5034584;28;20152;-77
2023/01/22 01:30:10;;;;;;;5.82;3.40;;;1.50;91.00;;;;;;5034895;28;20123;-76
2023/01/22 01:32:35;;;;;;;3.78;2.80;;;1.40;90.90;;;;;;5035037;28;20103;-78
2023/01/22 01:35:01;;;;;;;4.53;3.00;;;1.50;91.00;;;;;;5036212;28;20744;-78
2023/01/22 01:37:27;;;;;;;6.10;2.63;;;1.50;91.00;;;;;;5032508;28;20045;-79
2023/01/22 01:39:52;;;;;;;3.08;2.40;;;1.50;91.00;;;;;;5041123;28;20044;-76
2023/01/22 01:42:23;;;;;;;3.90;2.75;;;1.50;91.00;;;;;;5035244;28;20491;-77
2023/01/22 01:45:28;;;;;;;6.30;3.70;;;1.50;91.00;;;;;;5034615;28;20041;-76
2023/01/22 01:48:16;;;;;;;5.78;4.45;;;1.50;91.00;;;;;;5040026;28;20052;-77
2023/01/22 01:50:43;;;;;;;5.72;3.83;;;1.50;91.00;;;;;;5024318;28;20033;-76
2023/01/22 01:53:09;;;;;;;3.75;2.92;;;1.50;91.00;;;;;;5034618;28;20065;-76
2023/01/22 01:55:34;;;;;;;3.70;3.13;;;1.50;91.00;;;;;;5031138;28;20136;-75
2023/01/22 01:58:03;;;;;;;3.72;2.70;;;1.50;91.00;;;;;;5033877;28;20056;-77
2023/01/22 02:00:31;;;;;;;4.95;2.90;;;1.50;91.00;;;;;;5033639;28;20089;-76
2023/01/22 02:02:57;;;;;;;3.65;2.42;;;1.50;91.00;;;;;;5031680;28;20128;-76
2023/01/22 02:05:23;;;;;;;3.65;2.80;;;1.50;91.00;;;;;;5033006;28;20086;-76
2023/01/22 02:07:48;;;;;;;3.90;2.60;;;1.50;91.00;;;;;;5037886;28;21937;-78
2023/01/22 02:10:14;;;;;;;5.80;2.95;;;1.50;91.00;;;;;;5033940;28;20052;-78
2023/01/22 02:12:39;;;;;;;3.50;2.42;;;1.50;91.00;;;;;;5037537;28;20052;-75
2023/01/22 02:15:06;;;;;;;4.22;2.97;;;1.50;91.00;;;;;;5032349;28;20477;-77
2023/01/22 02:17:31;;;;;;;3.83;2.60;;;1.50;91.00;;;;;;5038250;28;20040;-78
2023/01/22 02:19:57;;;;;;;2.97;2.28;;;1.50;91.00;;;;;;5039095;28;20048;-78
2023/01/22 02:22:27;;;;;;;4.05;2.45;;;1.50;91.10;;;;;;5037061;28;20032;-77
2023/01/22 02:24:52;;;;;;;2.88;2.25;;;1.50;91.10;;;;;;5013870;28;20064;-76
2023/01/22 02:27:18;;;;;;;5.05;2.25;;;1.50;91.10;;;;;;5036190;28;20053;-76
2023/01/22 02:29:43;;;;;;;3.85;2.50;;;1.50;91.10;;;;;;5038695;28;20045;-75
2023/01/22 02:32:09;;;;;;;4.13;2.80;;;1.50;91.10;;;;;;5044109;28;20186;-77
2023/01/22 02:34:34;;;;;;;3.78;2.78;;;1.50;91.10;;;;;;5037547;28;20064;-75
2023/01/22 02:37:00;;;;;;;3.72;2.22;;;1.50;91.10;;;;;;5040391;28;20510;-78
2023/01/22 02:39:25;;;;;;;3.33;2.53;;;1.50;91.10;;;;;;5037882;28;20611;-77
2023/01/22 02:41:51;;;;;;;3.35;2.42;;;1.50;91.40;;;;;;5040243;28;20842;-78
2023/01/22 02:44:16;;;;;;;3.42;2.30;;;1.50;91.20;;;;;;5037443;28;20071;-76
2023/01/22 02:46:42;;;;;;;4.18;2.72;;;1.50;91.20;;;;;;5039200;28;20037;-76
2023/01/22 02:49:07;;;;;;;3.10;2.50;;;1.50;91.10;;;;;;5035184;28;20037;-76
2023/01/22 02:51:33;;;;;;;3.78;2.60;;;1.50;91.20;;;;;;5037029;28;20094;-75
2023/01/22 02:53:58;;;;;;;4.28;2.70;;;1.50;91.10;;;;;;5036693;28;20098;-76
2023/01/22 02:56:24;;;;;;;3.75;2.60;;;1.50;91.10;;;;;;5035370;28;20025;-81
2023/01/22 02:58:50;;;;;;;4.55;2.63;;;1.50;91.10;;;;;;5033449;28;20103;-78
2023/01/22 03:01:22;;;;;;;4.68;3.13;;;1.50;91.20;;;;;;5034458;28;20051;-76
2023/01/22 03:03:52;;;;;;;4.07;2.80;;;1.50;91.20;;;;;;5038729;28;20036;-75
2023/01/22 03:06:21;;;;;;;2.90;2.27;;;1.50;91.20;;;;;;5037803;28;20048;-78
2023/01/22 03:08:51;;;;;;;2.42;1.90;;;1.50;91.20;;;;;;5040143;28;20296;-76
2023/01/22 03:11:17;;;;;;;2.72;1.95;;;1.50;91.20;;;;;;5037513;28;20040;-76
2023/01/22 03:21:55;;;;;;;2.28;1.80;;;1.50;91.20;;;;;;5037035;28;20079;-77
2023/01/22 03:24:21;;;;;;;2.65;1.92;;;1.50;91.20;;;;;;5039045;28;20041;-74
2023/01/22 03:26:46;;;;;;;2.13;1.65;;;1.50;91.20;;;;;;5041428;28;20029;-78
2023/01/22 03:29:12;;;;;;;3.05;2.10;;;1.50;91.20;;;;;;5038323;28;20125;-76
2023/01/22 03:31:37;;;;;;;2.00;1.63;;;1.50;91.20;;;;;;5037193;28;20039;-77
2023/01/22 03:34:03;;;;;;;4.10;2.15;;;1.40;91.20;;;;;;5040092;28;20036;-77
2023/01/22 03:36:28;;;;;;;2.10;1.90;;;1.40;91.20;;;;;;5033021;28;20037;-77
2023/01/22 03:38:54;;;;;;;2.60;1.90;;;1.50;91.20;;;;;;5035928;28;20035;-76
2023/01/22 03:41:20;;;;;;;3.60;2.38;;;1.50;91.20;;;;;;5028551;28;20040;-74
2023/01/22 03:43:45;;;;;;;1.95;1.63;;;1.50;91.20;;;;;;5036124;28;20049;-79
2023/01/22 03:46:15;;;;;;;3.22;1.92;;;1.50;91.20;;;;;;5041528;28;20036;-77
2023/01/22 03:48:41;;;;;;;3.38;1.67;;;1.50;91.20;;;;;;5031484;28;20045;-79
2023/01/22 03:51:11;;;;;;;2.13;1.63;;;1.50;91.20;;;;;;5042467;28;20095;-78
2023/01/22 03:53:37;;;;;;;2.55;1.92;;;1.50;91.20;;;;;;5032842;28;20037;-77
2023/01/22 03:56:05;;;;;;;2.45;1.73;;;1.50;91.20;;;;;;5032958;28;20036;-78
2023/01/22 03:58:30;;;;;;;1.98;1.65;;;1.50;91.20;;;;;;5031647;28;20415;-78
2023/01/22 04:00:56;;;;;;;2.20;1.42;;;1.50;91.20;;;;;;5034796;28;20046;-77
2023/01/22 04:03:24;;;;;;;1.45;1.35;;;1.50;91.20;;;;;;5034952;28;20448;-78
2023/01/22 04:05:50;;;;;;;2.10;1.60;;;1.50;91.20;;;;;;5034455;28;20091;-76
2023/01/22 04:08:15;;;;;;;1.92;1.50;;;1.50;91.20;;;;;;5033048;28;20104;-78
2023/01/22 04:10:41;;;;;;;1.73;1.30;;;1.50;91.20;;;;;;5032430;28;20091;-76
2023/01/22 04:13:07;;;;;;;1.90;1.27;;;1.50;91.20;;;;;;5036829;28;20041;-77
2023/01/22 04:15:32;;;;;;;1.98;1.58;;;1.50;91.30;;;;;;5038103;28;20041;-78
2023/01/22 04:17:58;;;;;;;1.98;1.55;;;1.50;91.30;;;;;;5034315;28;20045;-77
2023/01/22 04:20:23;;;;;;;1.88;1.70;;;1.50;91.30;;;;;;5017860;28;20087;-77
2023/01/22 04:22:49;;;;;;;2.42;1.50;;;1.50;91.30;;;;;;5033006;28;20110;-77
2023/01/22 04:25:14;;;;;;;3.00;1.98;;;1.50;91.30;;;;;;5040997;28;20037;-78
2023/01/22 04:27:40;;;;;;;2.00;1.40;;;1.50;91.30;;;;;;5034377;28;20041;-76
2023/01/22 04:30:06;;;;;;;4.55;1.80;;;1.50;91.30;;;;;;5041418;28;20079;-77
2023/01/22 04:32:31;;;;;;;2.42;1.80;;;1.50;91.30;;;;;;5034464;28;20044;-76
2023/01/22 04:34:57;;;;;;;1.70;1.58;;;1.50;91.30;;;;;;5037266;28;20389;-78
2023/01/22 04:37:22;;;;;;;3.22;2.00;;;1.50;91.30;;;;;;5031469;28;20699;-76
2023/01/22 04:39:48;;;;;;;3.80;2.05;;;1.50;91.30;;;;;;5031800;28;20171;-78
2023/01/22 04:42:13;;;;;;;2.33;1.42;;;1.50;91.30;;;;;;5031808;28;20047;-77
2023/01/22 04:44:39;;;;;;;3.17;1.80;;;1.50;91.30;;;;;;5032699;28;20041;-76
2023/01/22 04:47:04;;;;;;;2.33;1.73;;;1.50;91.30;;;;;;5035831;28;20036;-77
2023/01/22 04:49:30;;;;;;;1.98;1.45;;;1.50;91.60;;;;;;5030317;28;20037;-76
2023/01/22 04:51:55;;;;;;;1.85;1.35;;;1.50;91.30;;;;;;5033646;28;20041;-78
2023/01/22 04:54:21;;;;;;;2.25;1.40;;;1.50;91.30;;;;;;5037249;28;20036;-78
2023/01/22 04:56:46;;;;;;;2.15;1.40;;;1.50;91.30;;;;;;5034753;28;20033;-77
2023/01/22 04:59:12;;;;;;;1.85;1.42;;;1.50;91.30;;;;;;5033353;28;20039;-77
2023/01/22 05:01:37;;;;;;;1.45;1.25;;;1.50;91.30;;;;;;5037696;28;20047;-78
2023/01/22 05:04:03;;;;;;;2.30;1.50;;;1.50;91.30;;;;;;5035671;28;20041;-77
2023/01/22 05:06:29;;;;;;;2.30;1.58;;;1.50;91.30;;;;;;5036764;28;20067;-77
2023/01/22 05:08:54;;;;;;;2.28;1.52;;;1.50;91.30;;;;;;5032817;28;20045;-78
2023/01/22 05:11:20;;;;;;;1.73;1.48;;;1.50;91.30;;;;;;5037201;28;20037;-77
2023/01/22 05:13:45;;;;;;;2.28;1.63;;;1.50;91.30;;;;;;5034184;28;20063;-76
2023/01/22 05:16:11;;;;;;;2.17;1.40;;;1.50;91.30;;;;;;5035921;28;20052;-79
2023/01/22 05:18:36;;;;;;;1.85;1.23;;;1.50;91.30;;;;;;5033913;28;20504;-78
2023/01/22 05:21:02;;;;;;;1.60;1.00;;;1.50;91.40;;;;;;5039234;28;20045;-79
2023/01/22 05:23:27;;;;;;;1.42;0.95;;;1.50;91.40;;;;;;5031115;28;20052;-76
2023/01/22 05:25:53;;;;;;;1.25;0.95;;;1.50;91.40;;;;;;5035133;28;20112;-77
2023/01/22 05:28:18;;;;;;;1.45;1.20;;;1.50;91.40;;;;;;5034952;28;20036;-76
2023/01/22 05:30:46;;;;;;;1.17;1.00;;;1.50;91.40;;;;;;5035359;28;20045;-76
2023/01/22 05:33:11;;;;;;;1.42;0.90;;;1.50;91.40;;;;;;5035191;28;20040;-77
2023/01/22 05:35:37;;;;;;;2.72;0.98;;;1.50;91.40;;;;;;5034868;28;20033;-76
2023/01/22 05:38:02;;;;;;;1.65;1.13;;;1.50;91.40;;;;;;5033213;28;20037;-76
2023/01/22 05:40:28;;;;;;;1.10;1.00;;;1.50;91.40;;;;;;5033417;28;20044;-76
2023/01/22 05:42:54;;;;;;;1.23;1.13;;;1.50;91.40;;;;;;5031798;28;20784;-79
2023/01/22 05:45:19;;;;;;;1.00;0.85;;;1.50;91.40;;;;;;5036757;28;20869;-77
2023/01/22 05:47:51;;;;;;;1.15;1.05;;;1.50;91.40;;;;;;5036775;28;20037;-78
2023/01/22 05:50:16;;;;;;;0.93;0.85;;;1.50;91.40;;;;;;5039254;28;20060;-76
2023/01/22 05:52:42;;;;;;;1.38;1.15;;;1.50;91.40;;;;;;5034728;28;20495;-79
2023/01/22 05:55:07;;;;;;;2.15;1.20;;;1.50;91.40;;;;;;5037893;28;20033;-79
2023/01/22 05:57:34;;;;;;;2.50;1.42;;;1.50;91.40;;;;;;5034874;28;20063;-77
2023/01/22 06:00:00;;;;;;;1.65;1.27;;;1.50;91.40;;;;;;5027933;28;20089;-76
2023/01/22 06:02:25;;;;;;;2.60;1.55;;;1.50;91.40;;;;;;5046728;28;20044;-78
2023/01/22 06:04:51;;;;;;;1.58;1.40;;;1.50;91.40;;;;;;5037914;28;20094;-77
2023/01/22 06:07:16;;;;;;;1.42;1.13;;;1.50;91.40;;;;;;5038689;28;20037;-77
2023/01/22 06:09:42;;;;;;;1.40;0.98;;;1.50;91.40;;;;;;5038824;28;20028;-78
2023/01/22 06:12:07;;;;;;;1.60;1.20;;;1.50;91.50;;;;;;5036405;28;20091;-77
2023/01/22 06:14:33;;;;;;;2.97;1.85;;;1.50;91.40;;;;;;5036290;28;20033;-78
2023/01/22 06:17:00;;;;;;;5.45;3.00;;;1.50;91.50;;;;;;5037796;28;20059;-79
2023/01/22 06:19:26;;;;;;;4.40;2.88;;;1.50;91.50;;;;;;5037004;28;20068;-76
2023/01/22 06:21:51;;;;;;;4.05;2.65;;;1.50;91.50;;;;;;5035763;28;20203;-78
2023/01/22 06:24:17;;;;;;;5.15;3.67;;;1.50;91.50;;;;;;5035688;28;20041;-80
2023/01/22 06:26:42;;;;;;;4.68;3.50;;;1.50;91.50;;;;;;5033425;28;20060;-77
2023/01/22 06:29:08;;;;;;;4.03;3.17;;;1.50;91.50;;;;;;5040595;28;20039;-78
2023/01/22 06:31:33;;;;;;;5.57;2.85;;;1.50;91.50;;;;;;5034456;28;20126;-78
2023/01/22 06:33:59;;;;;;;2.83;2.30;;;1.50;91.50;;;;;;5035522;28;20803;-77
2023/01/22 06:36:24;;;;;;;2.80;2.20;;;1.50;91.50;;;;;;5036066;28;20033;-76
2023/01/22 06:38:50;;;;;;;2.22;2.00;;;1.50;91.50;;;;;;5035255;28;20070;-78
2023/01/22 06:41:15;;;;;;;2.20;1.85;;;1.50;91.50;;;;;;5034512;28;20116;-78
2023/01/22 06:43:41;;;;;;;4.93;3.25;;;1.50;91.50;;;;;;5038726;28;20115;-77
2023/01/22 06:46:06;;;;;;;4.53;2.47;;;1.50;91.50;;;;;;5037748;28;20131;-78
2023/01/22 06:48:32;;;;;;;6.68;3.28;;;1.50;91.50;;;;;;5037217;28;20040;-77
2023/01/22 06:50:58;;;;;;;6.30;4.00;;;1.60;91.50;;;;;;5035813;28;20059;-78
2023/01/22 06:53:24;;;;;;;6.47;3.65;;;1.50;91.50;;;;;;5036988;28;20464;-78
2023/01/22 06:55:50;;;;;;;7.72;3.60;;;1.60;91.60;;;;;;5037061;28;20086;-78
2023/01/22 06:58:15;;;;;;;6.75;3.70;;;1.60;91.60;;;;;;5038777;28;20127;-76
2023/01/22 07:00:41;;;;;;;6.80;3.50;;;1.60;91.60;;;;;;5034641;28;20518;-76
2023/01/22 07:03:06;;;;;;;4.63;3.25;;;1.60;91.60;;;;;;5038069;28;20037;-77
2023/01/22 07:05:33;;;;;;;4.90;3.50;;;1.50;91.50;;;;;;5033545;28;20048;-80
2023/01/22 07:07:58;;;;;;;4.57;3.30;;;1.50;91.60;;;;;;5035332;28;20032;-77
2023/01/22 07:10:24;;;;;;;4.65;3.67;;;1.50;91.60;;;;;;5034355;28;20565;-77
2023/01/22 07:12:53;;;;;;;5.47;3.50;;;1.50;91.60;;;;;;5022090;28;20704;-79
2023/01/22 07:15:18;;;;;;;5.35;3.60;;;1.50;91.60;;;;;;5036583;28;20462;-77
2023/01/22 07:17:51;;;;;;;3.58;2.75;;;1.50;91.60;;;;;;5034336;28;20495;-77
2023/01/22 07:20:18;;;;;;;2.78;2.28;;;1.50;91.60;;;;;;5035129;28;20629;-77
2023/01/22 07:22:43;;;;;;;3.53;2.38;;;1.50;91.60;;;;;;5034075;28;20500;-77
2023/01/22 07:25:11;;;;;;;2.95;2.42;;;1.50;91.60;;;;;;5035194;28;20071;-77
2023/01/22 07:27:37;;;;;;;3.03;2.47;;;1.50;91.60;;;;;;5031182;28;20086;-80
2023/01/22 07:30:04;;;;;;;2.50;2.30;;;1.50;91.60;;;;;;5035530;28;20041;-76
2023/01/22 07:32:29;;;;;;;3.72;2.30;;;1.50;91.60;;;;;;5033862;28;20041;-76
2023/01/22 07:34:55;;;;;;;2.63;1.98;;;1.50;91.60;;;;;;5034015;28;20037;-76
2023/01/22 07:37:20;;;;;;;2.53;2.22;;;1.50;91.60;;;;;;5033975;28;20185;-76
2023/01/22 07:39:46;;;;;;;4.00;2.90;;;1.50;91.60;;;;;;5036801;28;20468;-77
2023/01/22 07:42:12;;;;;;;5.80;3.38;;;1.50;92.00;;;;;;5036087;28;20035;-78
2023/01/22 07:44:39;;;;;;;3.75;2.75;;;1.50;91.70;;;;;;5034105;28;20033;-79
2023/01/22 07:47:05;;;;;;;6.38;3.22;;;1.50;91.70;;;;;;5033256;28;20040;-79
2023/01/22 07:49:30;;;;;;;12.05;6.68;;;1.50;91.60;;;;;;5034676;28;20687;-78
2023/01/22 07:51:56;;;;;;;11.88;6.82;;;1.50;91.70;;;;;;5032696;28;20041;-80
2023/01/22 07:54:22;;;;;;;5.97;3.83;;;1.50;91.70;;;;;;5037411;28;20044;-80
2023/01/22 07:56:47;;;;;;;6.13;4.00;;;1.60;91.70;;;;;;5038708;28;20037;-79
2023/01/22 07:59:13;;;;;;;5.03;3.53;;;1.60;91.70;;;;;;5037069;28;20036;-79
2023/01/22 08:01:39;;;;;;;10.90;5.60;;;1.60;91.70;;;;;;5039385;28;20790;-75
2023/01/22 08:04:04;;;;;;;12.00;6.25;;;1.60;91.70;;;;;;5036102;28;20407;-80
2023/01/22 08:06:30;;;;;;;12.57;6.00;;;1.70;91.70;;;;;;5037903;28;20095;-76
2023/01/22 08:08:57;;;;;;;17.38;8.27;;;1.70;91.70;;;;;;5031497;28;20091;-77
2023/01/22 08:11:23;;;;;;;24.10;12.50;;;1.70;91.70;;;;;;5032940;28;20025;-77
2023/01/22 08:13:48;;;;;;;21.45;10.85;;;1.70;91.70;;;;;;5034363;28;20039;-79
2023/01/22 08:16:14;;;;;;;20.17;10.65;;;1.70;91.70;;;;;;5035327;28;20043;-78
2023/01/22 08:18:39;;;;;;;21.65;10.73;;;1.80;91.80;;;;;;5038859;28;20036;-77
2023/01/22 08:21:05;;;;;;;22.88;10.88;;;1.80;91.80;;;;;;5036088;28;20119;-79
2023/01/22 08:23:30;;;;;;;39.72;19.23;;;1.80;91.80;;;;;;5035338;28;20037;-77
2023/01/22 08:25:59;;;;;;;25.95;14.25;;;1.80;91.80;;;;;;5030192;28;20081;-78
2023/01/22 08:28:25;;;;;;;27.63;14.55;;;1.80;91.70;;;;;;5011924;28;20044;-79
2023/01/22 08:30:51;;;;;;;30.25;12.93;;;1.80;91.70;;;;;;5033579;28;20101;-78
2023/01/22 08:33:16;;;;;;;74.18;23.23;;;1.80;91.70;;;;;;5034920;28;20037;-76
2023/01/22 08:35:42;;;;;;;74.70;23.70;;;1.80;91.70;;;;;;5036878;28;20086;-75
2023/01/22 08:38:07;;;;;;;46.42;16.85;;;1.90;91.80;;;;;;5036486;28;20044;-79
2023/01/22 08:40:33;;;;;;;43.95;14.50;;;1.90;91.80;;;;;;5033121;28;20047;-77
2023/01/22 08:42:58;;;;;;;40.47;14.27;;;1.90;91.80;;;;;;5034237;28;20036;-76
2023/01/22 08:45:24;;;;;;;30.67;11.50;;;1.90;91.70;;;;;;5035628;28;20478;-77
2023/01/22 08:47:54;;;;;;;28.60;12.13;;;1.90;91.70;;;;;;5034434;28;20498;-80
2023/01/22 08:50:19;;;;;;;21.15;8.77;;;2.00;91.70;;;;;;5033447;28;20044;-77
2023/01/22 08:52:45;;;;;;;13.32;7.25;;;2.00;91.70;;;;;;5034161;28;20041;-78
2023/01/22 08:55:10;;;;;;;10.10;6.68;;;2.00;91.70;;;;;;5035186;28;20419;-78
2023/01/22 08:57:36;;;;;;;8.75;5.38;;;2.00;91.70;;;;;;5037107;28;20094;-77
2023/01/22 09:00:03;;;;;;;10.00;5.53;;;2.00;91.70;;;;;;5033520;28;20037;-79
2023/01/22 09:02:28;;;;;;;8.88;4.57;;;2.10;91.70;;;;;;5040402;28;20033;-78
2023/01/22 09:04:54;;;;;;;7.50;4.05;;;2.10;91.70;;;;;;5033209;28;20080;-77
2023/01/22 09:07:19;;;;;;;5.30;4.50;;;2.10;91.70;;;;;;5022231;28;20047;-78
2023/01/22 09:09:45;;;;;;;6.47;4.53;;;2.20;91.80;;;;;;5033532;28;20506;-78
2023/01/22 09:12:10;;;;;;;5.43;3.85;;;2.20;91.70;;;;;;5034331;28;20527;-79
2023/01/22 09:14:36;;;;;;;4.05;3.05;;;2.20;91.70;;;;;;5035251;28;20030;-77
2023/01/22 09:17:01;;;;;;;5.47;3.75;;;2.20;91.70;;;;;;5035377;28;20527;-78
2023/01/22 09:19:27;;;;;;;7.00;4.80;;;2.20;91.70;;;;;;5036084;28;20033;-80
2023/01/22 09:21:52;;;;;;;8.45;5.30;;;2.20;91.70;;;;;;5034433;28;20044;-78
2023/01/22 09:24:18;;;;;;;71.13;27.88;;;2.30;91.80;;;;;;5031923;28;20067;-77
2023/01/22 09:26:43;;;;;;;15.23;9.00;;;2.30;91.70;;;;;;5031663;28;20043;-78
2023/01/22 09:29:09;;;;;;;6.97;5.10;;;2.30;91.70;;;;;;5035181;28;20059;-78
2023/01/22 09:31:34;;;;;;;6.65;5.10;;;2.30;91.70;;;;;;5037305;28;20638;-77
2023/01/22 09:34:00;;;;;;;5.82;4.38;;;2.30;91.70;;;;;;5035340;28;20069;-78
2023/01/22 09:36:26;;;;;;;7.03;5.25;;;2.30;91.70;;;;;;5042843;28;20067;-79
2023/01/22 09:38:51;;;;;;;7.95;5.38;;;2.30;91.70;;;;;;5035069;28;20045;-79
2023/01/22 09:41:34;;;;;;;6.05;4.57;;;2.30;91.70;;;;;;5033792;28;20041;-77
2023/01/22 09:44:18;;;;;;;13.18;7.88;;;2.30;91.70;;;;;;5037972;28;20075;-79
2023/01/22 09:46:52;;;;;;;18.05;11.13;;;2.30;91.70;;;;;;5035980;28;20084;-79
2023/01/22 09:49:20;;;;;;;18.83;9.98;;;2.30;91.70;;;;;;5026549;28;20053;-77
2023/01/22 09:51:55;;;;;;;7.07;5.30;;;2.40;91.70;;;;;;5037584;28;20091;-77
2023/01/22 09:54:21;;;;;;;5.78;4.13;;;2.40;91.70;;;;;;5039275;28;20033;-77
2023/01/22 09:56:49;;;;;;;7.97;5.75;;;2.40;91.60;;;;;;5036872;28;20051;-78
2023/01/22 09:59:57;;;;;;;6.47;4.28;;;2.40;91.60;;;;;;5035230;28;20032;-77
2023/01/22 10:02:27;;;;;;;7.00;4.30;;;2.40;91.60;;;;;;5023629;28;20039;-77
2023/01/22 10:04:56;;;;;;;7.05;5.07;;;2.50;91.60;;;;;;5043703;28;20051;-78
2023/01/22 10:07:35;;;;;;;8.02;6.10;;;2.50;91.60;;;;;;5035974;28;20816;-78
2023/01/22 10:10:15;;;;;;;11.15;7.65;;;2.50;91.60;;;;;;5032616;28;20055;-78
2023/01/22 10:12:41;;;;;;;11.57;7.43;;;2.50;91.60;;;;;;5035754;28;20030;-77
2023/01/22 10:15:11;;;;;;;4.88;3.47;;;2.50;91.60;;;;;;5034715;28;20036;-76
2023/01/22 10:17:37;;;;;;;7.43;4.70;;;2.50;91.60;;;;;;5037844;28;20049;-75
2023/01/22 10:20:03;;;;;;;5.22;3.40;;;2.50;91.60;;;;;;5037102;28;20049;-77
2023/01/22 10:22:29;;;;;;;7.35;4.35;;;2.50;91.50;;;;;;5040781;28;20079;-76
2023/01/22 10:24:55;;;;;;;9.35;5.53;;;2.60;91.60;;;;;;5039573;28;20558;-77
2023/01/22 10:27:42;;;;;;;19.80;8.40;;;2.60;91.50;;;;;;5030000;28;20573;-78
2023/01/22 10:30:16;;;;;;;17.00;7.63;;;2.60;91.50;;;;;;5033543;28;20061;-76
2023/01/22 10:32:41;;;;;;;14.25;7.57;;;2.60;91.50;;;;;;5037892;28;20520;-77
2023/01/22 10:35:10;;;;;;;11.00;5.88;;;2.60;91.50;;;;;;5037981;28;20045;-75
2023/01/22 10:38:01;;;;;;;8.55;4.95;;;2.60;91.50;;;;;;5034281;28;20033;-77
2023/01/22 10:40:30;;;;;;;;;;;2.60;91.40;;;;;;5031383;28;20043;-78
2023/01/22 10:43:09;;;;;;;11.35;5.75;;;2.60;91.40;;;;;;5040246;28;19916;-76
2023/01/22 10:45:34;;;;;;;11.43;6.03;;;2.60;91.40;;;;;;5036644;28;20044;-76
2023/01/22 10:48:12;;;;;;;7.40;5.20;;;2.70;91.40;;;;;;5035051;28;20525;-77
2023/01/22 10:50:37;;;;;;;5.53;4.25;;;2.70;91.40;;;;;;5038658;28;20044;-76
2023/01/22 10:53:03;;;;;;;4.43;3.45;;;2.70;91.50;;;;;;5035374;28;20029;-77
2023/01/22 10:55:31;;;;;;;3.85;3.05;;;2.70;91.40;;;;;;5033105;28;20122;-77
2023/01/22 10:58:02;;;;;;;3.97;3.10;;;2.70;91.40;;;;;;5034853;28;20048;-78
2023/01/22 11:00:35;;;;;;;4.50;3.30;;;2.70;91.40;;;;;;5033037;28;20048;-78
2023/01/22 11:03:01;;;;;;;4.07;3.05;;;2.80;91.40;;;;;;5035826;28;20770;-76
2023/01/22 11:05:32;;;;;;;3.08;2.78;;;2.80;91.40;;;;;;5030739;28;20039;-77
2023/01/22 11:08:03;;;;;;;4.95;3.17;;;2.80;91.40;;;;;;5032144;28;20111;-77
2023/01/22 11:10:44;;;;;;;;;;;2.80;91.40;;;;;;5032707;28;20047;-77
2023/01/22 11:13:15;;;;;;;5.78;3.30;;;2.80;91.30;;;;;;5035690;28;20623;-76
2023/01/22 11:16:04;;;;;;;5.93;3.70;;;2.90;91.30;;;;;;5020666;28;20047;-77
2023/01/22 11:18:34;;;;;;;7.75;3.83;;;2.90;91.30;;;;;;5034479;28;20042;-78
2023/01/22 11:20:59;;;;;;;6.88;3.92;;;2.90;91.30;;;;;;5019703;28;20037;-78
2023/01/22 11:23:56;;;;;;;5.88;3.22;;;2.90;91.30;;;;;;5038438;28;20040;-77
2023/01/22 11:26:28;;;;;;;7.18;4.05;;;2.90;91.20;;;;;;5035664;28;20040;-78
2023/01/22 11:29:04;;;;;;;8.07;5.55;;;3.00;91.20;;;;;;5034698;28;20404;-78
2023/01/22 11:31:46;;;;;;;11.20;5.60;;;3.00;91.20;;;;;;5037957;28;21663;-79
2023/01/22 11:34:45;;;;;;;6.05;3.72;;;3.00;91.20;;;;;;5036516;28;20041;-76
2023/01/22 11:37:37;;;;;;;4.32;3.30;;;3.00;91.20;;;;;;5034467;28;20051;-79
2023/01/22 11:40:36;;;;;;;4.18;2.75;;;3.00;91.10;;;;;;5017778;28;20649;-77
2023/01/22 11:43:32;;;;;;;3.38;2.75;;;3.10;91.10;;;;;;4990323;28;20156;-77
2023/01/22 11:46:19;;;;;;;3.92;2.78;;;3.10;91.10;;;;;;5033115;28;20052;-76
2023/01/22 11:49:12;;;;;;;5.82;3.20;;;3.10;91.00;;;;;;5034701;28;20458;-71
2023/01/22 11:51:58;;;;;;;4.55;2.70;;;3.10;91.00;;;;;;5036302;28;20045;-79
2023/01/22 11:54:33;;;;;;;14.57;8.38;;;3.10;91.00;;;;;;5037624;28;20500;-78
2023/01/22 11:57:14;;;;;;;94.85;49.30;;;3.10;91.00;;;;;;5033599;28;20083;-77
2023/01/22 12:00:11;;;;;;;5.50;4.20;;;3.10;91.00;;;;;;5035589;28;20071;-78
2023/01/22 12:03:13;;;;;;;3.85;3.10;;;3.10;90.90;;;;;;5034148;28;20045;-78
2023/01/22 12:05:47;;;;;;;4.93;3.40;;;3.10;90.90;;;;;;5033543;28;20420;-76
2023/01/22 12:08:45;;;;;;;15.43;11.00;;;3.10;90.90;;;;;;5031855;28;20036;-78
2023/01/22 12:11:32;;;;;;;7.68;4.88;;;3.10;90.90;;;;;;5032531;28;20140;-79
2023/01/22 12:14:19;;;;;;;5.78;3.45;;;3.10;90.80;;;;;;5033672;28;20093;-76
2023/01/22 12:17:11;;;;;;;4.32;2.78;;;3.10;90.90;;;;;;5039575;28;20053;-80
2023/01/22 12:20:11;;;;;;;9.68;5.80;;;3.10;90.80;;;;;;5034439;28;20033;-78
2023/01/22 12:22:42;;;;;;;10.50;6.25;;;3.10;90.80;;;;;;5025180;28;20103;-77
2023/01/22 12:25:31;;;;;;;7.75;5.35;;;3.10;90.80;;;;;;5013631;28;20123;-78
2023/01/22 12:28:19;;;;;;;8.52;5.15;;;3.10;90.80;;;;;;5031048;28;20094;-79
2023/01/22 12:31:00;;;;;;;6.80;4.10;;;3.10;90.80;;;;;;5035762;28;20094;-79
2023/01/22 12:33:30;;;;;;;9.77;6.38;;;3.10;90.80;;;;;;5033639;28;20032;-78
2023/01/22 12:35:59;;;;;;;8.15;4.00;;;3.10;90.80;;;;;;5025851;28;20071;-80
2023/01/22 12:38:41;;;;;;;6.10;4.47;;;3.10;90.80;;;;;;5034474;28;20033;-77
2023/01/22 12:41:06;;;;;;;;;;;3.10;90.80;;;;;;5037486;28;20511;-77
2023/01/22 12:43:51;;;;;;;13.02;6.07;;;3.10;90.80;;;;;;5037317;28;20014;-78
2023/01/22 12:46:33;;;;;;;47.83;24.42;;;3.20;90.80;;;;;;5035761;28;20057;-76
2023/01/22 12:49:09;;;;;;;7.57;5.10;;;3.20;90.70;;;;;;5038377;28;20040;-78
2023/01/22 12:51:40;;;;;;;18.85;10.25;;;3.20;90.70;;;;;;5036089;28;20037;-76
2023/01/22 12:54:18;;;;;;;9.65;6.90;;;3.20;90.70;;;;;;5032294;28;20033;-77
2023/01/22 12:56:44;;;;;;;8.38;4.72;;;3.20;90.70;;;;;;5038319;28;20516;-78
2023/01/22 12:59:29;;;;;;;7.85;4.45;;;3.20;90.70;;;;;;5032669;28;20128;-76
2023/01/22 13:02:19;;;;;;;6.95;4.03;;;3.30;90.70;;;;;;5033458;28;20508;-77
2023/01/22 13:04:44;;;;;;;5.97;3.83;;;3.30;90.70;;;;;;5035003;28;20040;-77
2023/01/22 13:07:32;;;;;;;66.53;23.67;;;3.30;90.70;;;;;;5033621;28;21176;-74
2023/01/22 13:10:04;;;;;;;20.55;8.52;;;3.30;90.70;;;;;;5035654;28;20043;-78
2023/01/22 13:12:42;;;;;;;61.13;19.42;;;3.30;90.70;;;;;;5031514;28;20041;-76
2023/01/22 13:15:20;;;;;;;14.85;6.72;;;3.30;90.60;;;;;;5016592;28;20043;-78